aviador You're here:

EICK Decoded Metar

CORK in IRELAND
Report Time2017-09-25 04:00:00
UTC Time2017-09-25 04:23:06
Flight Rules vfr VFR
Wind320° at 06 kt
W.Decomp.*RWY 35: 5.4 kt HW 2.5 kt LCW
RWY 25: 1.6 kt HW 5.8 kt RCW
W.Rank320° ranks 7
Current wind is below 320° avg. (9.6)
Visibility9999 m
Phenomena:N/A
Clouds:Few 024 Hf
Expected CloudBase > 400 ft AGL from Temp-Dew spread
CeilingNone
Temp10°C (ISA -4)
Dew Point09°C (94% RH)
AAT7.6°C
QNH1020 hPa
Density Alt-56 ft
Elevation502 ft
Report Wrong Elevation
Raw Report
EICK 250400Z 32006KT 9999 FEW024 10/09 Q1020 NOSIG=

Extra information for EICK:More info

Metar Taf Metar & Taf Last 4 Metars F.Rules Stats Wind Profile Meteogram Temp Stats Airport Information Weather charts Add Link Nearby VenuesMetar ALERT Operation Metar Decoded Social comments